createdAt,value
2018-03-28T00:00:40.191Z,33.73
2018-03-28T00:03:07.643Z,32.73
2018-03-28T00:05:35.094Z,34.90
2018-03-28T00:08:02.570Z,34.77
2018-03-28T00:10:30.794Z,34.83
2018-03-28T00:12:58.237Z,34.20
2018-03-28T00:15:25.723Z,35.03
2018-03-28T00:17:53.159Z,34.30
2018-03-28T00:20:20.611Z,34.43
2018-03-28T00:22:48.085Z,33.90
2018-03-28T00:25:15.537Z,34.03
2018-03-28T00:27:42.996Z,34.07
2018-03-28T00:30:10.751Z,34.13
2018-03-28T00:32:38.213Z,34.80
2018-03-28T00:35:06.071Z,34.53
2018-03-28T00:37:33.561Z,34.53
2018-03-28T00:40:01.821Z,34.07
2018-03-28T00:42:29.706Z,33.63
2018-03-28T00:44:57.189Z,34.40
2018-03-28T00:47:25.400Z,35.97
2018-03-28T00:49:53.334Z,35.37
2018-03-28T00:52:21.654Z,35.73
2018-03-28T00:54:49.101Z,35.57
2018-03-28T00:57:16.554Z,35.87
2018-03-28T00:59:44.038Z,36.03
2018-03-28T01:02:11.482Z,36.67
2018-03-28T01:04:38.947Z,36.97
2018-03-28T01:07:07.180Z,35.27
2018-03-28T01:09:35.390Z,35.43
2018-03-28T01:12:02.868Z,37.00
2018-03-28T01:14:30.314Z,36.33
2018-03-28T01:16:57.771Z,36.83
2018-03-28T01:19:25.242Z,36.30
2018-03-28T01:21:52.700Z,36.17
2018-03-28T01:24:20.153Z,36.47
2018-03-28T01:26:47.616Z,36.03
2018-03-28T01:29:15.076Z,35.23
2018-03-28T01:31:42.521Z,35.90
2018-03-28T01:34:09.994Z,34.43
2018-03-28T01:36:37.455Z,35.67
2018-03-28T01:39:05.677Z,36.27
2018-03-28T01:41:33.703Z,34.43
2018-03-28T01:44:01.920Z,36.93
2018-03-28T01:46:29.785Z,35.73
2018-03-28T01:48:57.790Z,34.93
2018-03-28T01:51:25.242Z,35.20
2018-03-28T01:53:53.313Z,33.47
2018-03-28T01:56:21.554Z,32.57
2018-03-28T01:58:49.005Z,34.10
2018-03-28T02:01:17.449Z,32.87
2018-03-28T02:03:45.712Z,31.57
2018-03-28T02:06:13.153Z,31.30
2018-03-28T02:08:40.609Z,32.23
2018-03-28T02:11:08.718Z,31.07
2018-03-28T02:13:36.961Z,32.33
2018-03-28T02:16:04.414Z,30.83
2018-03-28T02:18:31.862Z,32.23
2018-03-28T02:20:59.340Z,30.97
2018-03-28T02:23:27.418Z,30.87
2018-03-28T02:25:54.874Z,30.23
2018-03-28T02:28:22.999Z,29.97
2018-03-28T02:30:50.451Z,30.90
2018-03-28T02:33:17.933Z,30.77
2018-03-28T02:35:45.383Z,30.67
2018-03-28T02:38:12.848Z,30.17
2018-03-28T02:40:40.618Z,31.63
2018-03-28T02:43:08.080Z,29.07
2018-03-28T02:45:36.018Z,32.00
2018-03-28T02:48:03.482Z,28.50
2018-03-28T02:50:31.688Z,28.80
2018-03-28T02:52:59.726Z,29.13
2018-03-28T02:55:27.174Z,29.17
2018-03-28T02:57:55.183Z,30.47
2018-03-28T03:00:22.677Z,29.83
2018-03-28T03:02:51.576Z,29.40
2018-03-28T03:05:19.025Z,28.10
2018-03-28T03:07:46.494Z,28.10
2018-03-28T03:10:13.948Z,28.63
2018-03-28T03:12:41.399Z,27.27
2018-03-28T03:15:08.870Z,28.47
2018-03-28T03:17:36.325Z,27.13
2018-03-28T03:20:03.782Z,27.43
2018-03-28T03:22:31.733Z,28.13
2018-03-28T03:24:59.183Z,27.93
2018-03-28T03:27:26.633Z,29.43
2018-03-28T03:29:54.873Z,27.17
2018-03-28T03:32:22.701Z,27.50
2018-03-28T03:34:50.146Z,27.97
2018-03-28T03:37:17.930Z,26.83
2018-03-28T03:39:45.378Z,27.97
2018-03-28T03:42:12.828Z,27.00
2018-03-28T03:44:40.285Z,27.53
2018-03-28T03:47:07.742Z,26.47
2018-03-28T03:49:35.222Z,26.97
2018-03-28T03:52:02.681Z,27.03
2018-03-28T03:54:30.129Z,25.33
2018-03-28T03:56:57.601Z,26.33
2018-03-28T03:59:25.049Z,26.07
2018-03-28T04:01:52.564Z,25.70
2018-03-28T04:04:19.981Z,23.97
2018-03-28T04:06:47.440Z,24.07
2018-03-28T04:09:14.886Z,22.43
2018-03-28T04:11:42.358Z,21.90
2018-03-28T04:14:09.805Z,21.37
2018-03-28T04:16:37.265Z,23.43
2018-03-28T04:19:04.762Z,21.20
2018-03-28T04:21:32.405Z,20.53
2018-03-28T04:24:01.078Z,21.20
2018-03-28T04:26:28.551Z,21.23
2018-03-28T04:28:56.775Z,22.07
2018-03-28T04:31:24.229Z,21.80
2018-03-28T04:33:51.709Z,22.20
2018-03-28T04:36:19.152Z,20.27
2018-03-28T04:38:46.601Z,21.20
2018-03-28T04:41:14.078Z,20.77
2018-03-28T04:43:41.561Z,21.40
2018-03-28T04:46:08.990Z,20.73
2018-03-28T04:48:37.049Z,20.40
2018-03-28T04:51:04.763Z,18.73
2018-03-28T04:53:32.978Z,19.63
2018-03-28T04:56:00.982Z,19.37
2018-03-28T04:58:28.870Z,17.60
2018-03-28T05:00:57.092Z,18.13
2018-03-28T05:06:55.494Z,17.47
2018-03-28T05:09:22.979Z,16.00
2018-03-28T05:11:50.427Z,16.37
2018-03-28T05:14:17.878Z,17.20
2018-03-28T05:16:45.350Z,15.70
2018-03-28T05:19:12.808Z,13.47
2018-03-28T05:21:40.682Z,12.03
2018-03-28T05:24:08.913Z,11.63
2018-03-28T05:26:36.366Z,10.70
2018-03-28T05:29:03.826Z,9.27
2018-03-28T05:31:31.278Z,8.77
2018-03-28T05:33:58.746Z,8.90
2018-03-28T05:36:26.416Z,8.10
2018-03-28T05:38:54.151Z,7.17
2018-03-28T05:41:21.623Z,7.00
2018-03-28T05:43:49.634Z,7.60
2018-03-28T05:46:17.847Z,7.43
2018-03-28T05:48:45.334Z,7.83
2018-03-28T05:51:13.788Z,6.70
2018-03-28T05:53:42.010Z,6.67
2018-03-28T05:56:10.413Z,6.57
2018-03-28T05:58:38.642Z,5.57
2018-03-28T06:01:06.098Z,5.67
2018-03-28T06:03:33.550Z,5.77
2018-03-28T06:06:00.993Z,5.77
2018-03-28T06:08:28.445Z,5.37
2018-03-28T06:10:55.893Z,5.23
2018-03-28T06:13:23.350Z,5.50
2018-03-28T06:15:50.788Z,4.83
2018-03-28T06:18:18.306Z,5.17
2018-03-28T06:20:45.748Z,5.20
2018-03-28T06:23:13.185Z,5.23
2018-03-28T06:25:40.643Z,4.60
2018-03-28T06:28:08.092Z,4.27
2018-03-28T06:30:35.565Z,4.27
2018-03-28T06:33:03.007Z,4.90
2018-03-28T06:35:31.024Z,4.60
2018-03-28T06:37:58.465Z,4.30
2018-03-28T06:40:25.919Z,4.40
2018-03-28T06:42:53.370Z,4.13
2018-03-28T06:45:20.822Z,3.90
2018-03-28T06:47:48.274Z,3.83
2018-03-28T06:50:15.730Z,3.83
2018-03-28T06:52:43.173Z,3.73
2018-03-28T06:55:10.625Z,3.63
2018-03-28T06:57:38.070Z,3.23
2018-03-28T07:00:05.532Z,3.27
2018-03-28T07:02:32.969Z,4.03
2018-03-28T07:05:01.186Z,3.30
2018-03-28T07:07:28.663Z,3.37
2018-03-28T07:09:56.529Z,3.43
2018-03-28T07:12:23.972Z,3.13
2018-03-28T07:14:51.412Z,3.23
2018-03-28T07:17:18.866Z,3.00
2018-03-28T07:19:46.318Z,3.10
2018-03-28T07:22:13.771Z,3.00
2018-03-28T07:24:41.693Z,3.30
2018-03-28T07:27:09.154Z,3.63
2018-03-28T07:29:37.371Z,3.30
2018-03-28T07:32:05.095Z,2.83
2018-03-28T07:34:32.533Z,3.33
2018-03-28T07:37:00.014Z,3.00
2018-03-28T07:39:29.949Z,3.60
2018-03-28T07:41:57.393Z,3.40
2018-03-28T07:44:24.842Z,3.10
2018-03-28T07:46:53.066Z,3.00
2018-03-28T07:49:20.525Z,3.70
2018-03-28T07:51:47.977Z,3.30
2018-03-28T07:54:22.257Z,3.63
2018-03-28T07:56:50.964Z,3.77
2018-03-28T07:59:18.690Z,3.93
2018-03-28T08:01:46.131Z,3.87
2018-03-28T08:04:13.578Z,4.07
2018-03-28T08:06:41.035Z,3.80
2018-03-28T08:09:08.477Z,4.33
2018-03-28T08:11:35.929Z,4.30
2018-03-28T08:14:03.377Z,4.40
2018-03-28T08:16:30.827Z,4.97
2018-03-28T08:19:00.131Z,4.00
2018-03-28T08:21:27.577Z,4.40
2018-03-28T08:23:55.034Z,4.13
2018-03-28T08:26:22.474Z,4.23
2018-03-28T08:28:49.925Z,4.80
2018-03-28T08:31:18.142Z,5.17
2018-03-28T08:33:46.111Z,4.73
2018-03-28T08:36:14.182Z,5.40
2018-03-28T08:38:41.627Z,4.70
2018-03-28T08:41:10.820Z,4.77
2018-03-28T08:43:38.266Z,5.00
2018-03-28T08:46:07.642Z,5.33
2018-03-28T08:48:35.858Z,5.10
2018-03-28T08:51:03.419Z,4.77
2018-03-28T08:53:31.415Z,4.87
2018-03-28T08:55:58.864Z,5.37
2018-03-28T08:58:26.734Z,5.37
2018-03-28T09:00:55.722Z,5.53
2018-03-28T09:03:24.575Z,5.63
2018-03-28T09:05:53.318Z,5.73
2018-03-28T09:08:20.756Z,5.27
2018-03-28T09:10:48.198Z,5.73
2018-03-28T09:13:15.658Z,5.77
2018-03-28T09:15:43.118Z,5.87
2018-03-28T09:18:10.573Z,5.73
2018-03-28T09:20:38.029Z,5.70
2018-03-28T09:23:05.499Z,6.37
2018-03-28T09:25:32.941Z,5.70
2018-03-28T09:28:00.777Z,6.20
2018-03-28T09:30:29.154Z,6.33
2018-03-28T09:32:56.658Z,5.53
2018-03-28T09:35:24.113Z,5.17
2018-03-28T09:37:51.554Z,5.33
2018-03-28T09:40:19.457Z,6.57
2018-03-28T09:42:47.684Z,5.83
2018-03-28T09:45:16.321Z,6.07
2018-03-28T09:47:44.531Z,5.90
2018-03-28T09:50:11.989Z,5.67
2018-03-28T09:52:39.445Z,6.10
2018-03-28T09:55:06.926Z,6.17
2018-03-28T09:57:34.377Z,5.17
2018-03-28T10:00:01.826Z,5.80
2018-03-28T10:02:31.054Z,6.40
2018-03-28T10:04:59.288Z,5.90
2018-03-28T10:07:26.764Z,7.60
2018-03-28T10:09:54.224Z,6.70
2018-03-28T10:12:21.663Z,6.20
2018-03-28T10:14:49.121Z,6.57
2018-03-28T10:17:16.573Z,5.70
2018-03-28T10:19:44.158Z,7.23
2018-03-28T10:22:11.623Z,7.10
2018-03-28T10:24:39.079Z,6.17
2018-03-28T10:27:06.528Z,6.23
2018-03-28T10:29:34.533Z,6.63
2018-03-28T10:32:02.741Z,5.60
2018-03-28T10:34:30.195Z,5.47
2018-03-28T10:36:57.642Z,6.20
2018-03-28T10:39:25.100Z,5.87
2018-03-28T10:41:52.550Z,4.67
2018-03-28T10:44:20.025Z,5.60
2018-03-28T10:46:48.061Z,4.97
2018-03-28T10:49:17.093Z,4.83
2018-03-28T10:51:44.578Z,4.83
2018-03-28T10:54:12.025Z,4.83
2018-03-28T10:56:40.034Z,6.33
2018-03-28T10:59:08.253Z,6.33
2018-03-28T11:01:35.714Z,8.03
2018-03-28T11:04:03.153Z,8.03
2018-03-28T11:06:30.638Z,8.57
2018-03-28T11:08:58.094Z,8.60
2018-03-28T11:11:25.547Z,8.10
2018-03-28T11:13:52.997Z,9.00
2018-03-28T11:16:21.026Z,9.90
2018-03-28T11:18:49.234Z,9.93
2018-03-28T11:21:16.705Z,10.97
2018-03-28T11:23:44.170Z,11.23
2018-03-28T11:26:13.984Z,10.87
2018-03-28T11:28:41.439Z,10.57
2018-03-28T11:31:08.909Z,11.20
2018-03-28T11:33:36.390Z,10.80
2018-03-28T11:36:05.123Z,9.20
2018-03-28T11:38:32.829Z,7.93
2018-03-28T11:41:01.033Z,7.73
2018-03-28T11:43:28.537Z,6.57
2018-03-28T11:45:55.995Z,6.20
2018-03-28T11:48:23.887Z,4.30
2018-03-28T11:50:52.141Z,4.20
2018-03-28T11:53:20.041Z,4.23
2018-03-28T11:55:48.262Z,4.57
2018-03-28T11:58:20.532Z,4.00
2018-03-28T12:00:47.964Z,4.00
2018-03-28T12:03:15.421Z,3.58
2018-03-28T12:05:43.493Z,4.18
2018-03-28T12:08:10.953Z,4.07
2018-03-28T12:10:38.416Z,4.20
2018-03-28T12:13:05.980Z,4.28
2018-03-28T12:15:34.196Z,4.40
2018-03-28T12:18:01.649Z,4.25
2018-03-28T12:20:29.101Z,4.00
2018-03-28T12:22:56.562Z,4.30
2018-03-28T12:25:24.019Z,3.95
2018-03-28T12:27:51.473Z,3.37
2018-03-28T12:30:18.920Z,2.83
2018-03-28T12:32:46.369Z,3.73
2018-03-28T12:35:13.830Z,3.70
2018-03-28T12:37:41.386Z,3.70
2018-03-28T12:40:09.091Z,3.40
2018-03-28T12:42:37.313Z,3.17
2018-03-28T12:45:05.325Z,3.03
2018-03-28T12:47:33.538Z,2.90
2018-03-28T12:50:01.454Z,2.90
2018-03-28T12:52:28.901Z,2.70
2018-03-28T12:54:56.344Z,3.00
2018-03-28T12:57:23.818Z,2.80
2018-03-28T12:59:51.711Z,2.97
2018-03-28T13:02:19.148Z,3.53
2018-03-28T13:04:46.669Z,3.23
2018-03-28T13:07:14.931Z,3.50
2018-03-28T13:09:42.396Z,3.30
2018-03-28T13:12:09.842Z,3.90
2018-03-28T13:14:37.866Z,3.63
2018-03-28T13:17:05.678Z,3.40
2018-03-28T13:19:33.135Z,3.30
2018-03-28T13:22:00.636Z,3.03
2018-03-28T13:24:28.062Z,3.20
2018-03-28T13:26:55.933Z,3.77
2018-03-28T13:29:23.388Z,3.30
2018-03-28T13:31:51.393Z,3.83
2018-03-28T13:34:20.241Z,3.70
2018-03-28T13:36:47.698Z,3.73
2018-03-28T13:39:15.150Z,3.70
2018-03-28T13:41:44.512Z,3.33
2018-03-28T13:44:12.772Z,3.23
2018-03-28T13:46:40.206Z,3.67
2018-03-28T13:49:07.933Z,3.47
2018-03-28T13:51:35.389Z,3.30
2018-03-28T13:54:02.852Z,3.50
2018-03-28T13:56:30.869Z,3.40
2018-03-28T13:58:58.745Z,3.40
2018-03-28T14:01:26.273Z,3.63
2018-03-28T14:03:54.265Z,3.70
2018-03-28T14:06:21.714Z,3.63
2018-03-28T14:08:49.174Z,3.80
2018-03-28T14:11:16.618Z,3.60
2018-03-28T14:13:44.068Z,3.30
2018-03-28T14:16:11.515Z,3.60
2018-03-28T14:18:38.978Z,3.33
2018-03-28T14:21:07.410Z,3.93
2018-03-28T14:23:34.864Z,3.50
2018-03-28T14:26:03.073Z,3.77
2018-03-28T14:28:30.890Z,4.43
2018-03-28T14:30:58.330Z,4.53
2018-03-28T14:33:25.811Z,4.23
2018-03-28T14:35:54.041Z,4.13
2018-03-28T14:38:22.318Z,4.50
2018-03-28T14:40:50.557Z,4.47
2018-03-28T14:43:18.364Z,4.93
2018-03-28T14:45:45.815Z,5.23
2018-03-28T14:48:13.466Z,5.47
2018-03-28T14:50:40.913Z,5.37
2018-03-28T14:53:08.404Z,5.50
2018-03-28T14:55:35.854Z,6.43
2018-03-28T14:58:03.848Z,5.70
2018-03-28T15:00:32.110Z,5.80
2018-03-28T15:02:59.564Z,5.87
2018-03-28T15:05:27.013Z,6.30
2018-03-28T15:07:54.750Z,6.03
2018-03-28T15:10:22.193Z,6.20
2018-03-28T15:12:49.651Z,6.30
2018-03-28T15:15:17.128Z,6.47
2018-03-28T15:17:44.593Z,5.87
2018-03-28T15:20:12.133Z,6.60
2018-03-28T15:22:39.814Z,6.70
2018-03-28T15:25:07.298Z,6.37
2018-03-28T15:27:35.394Z,7.00
2018-03-28T15:30:02.843Z,7.07
2018-03-28T15:32:31.056Z,7.13
2018-03-28T15:34:59.061Z,6.67
2018-03-28T15:37:26.519Z,8.33
2018-03-28T15:39:53.983Z,7.60
2018-03-28T15:42:21.435Z,6.93
2018-03-28T15:44:50.314Z,6.73
2018-03-28T15:47:18.447Z,6.73
2018-03-28T15:49:45.992Z,7.47
2018-03-28T15:52:13.437Z,6.93
2018-03-28T15:54:40.888Z,7.90
2018-03-28T15:57:09.357Z,8.57
2018-03-28T15:59:36.813Z,8.33
2018-03-28T16:02:05.640Z,8.80
2018-03-28T16:04:33.085Z,8.90
2018-03-28T16:07:00.543Z,8.83
2018-03-28T16:09:28.012Z,9.50
2018-03-28T16:11:55.466Z,9.47
2018-03-28T16:14:22.919Z,10.27
2018-03-28T16:16:50.370Z,10.83
2018-03-28T16:19:17.817Z,10.33
2018-03-28T16:21:45.395Z,10.27
2018-03-28T16:24:12.854Z,12.20
2018-03-28T16:26:40.881Z,11.00
2018-03-28T16:29:08.357Z,11.67
2018-03-28T16:31:37.006Z,12.53
2018-03-28T16:34:04.522Z,13.10
2018-03-28T16:36:32.011Z,13.63
2018-03-28T16:39:00.226Z,13.27
2018-03-28T16:41:28.509Z,13.90
2018-03-28T16:43:56.370Z,14.30
2018-03-28T16:46:24.970Z,14.23
2018-03-28T16:48:54.043Z,15.17
2018-03-28T16:51:22.703Z,14.83
2018-03-28T16:53:50.169Z,15.63
2018-03-28T16:56:17.714Z,15.80
2018-03-28T16:58:45.169Z,17.50
2018-03-28T17:01:12.631Z,17.30
2018-03-28T17:03:40.078Z,16.83
2018-03-28T17:06:07.958Z,17.17
2018-03-28T17:08:35.922Z,17.80
2018-03-28T17:11:03.392Z,16.77
2018-03-28T17:13:32.150Z,18.43
2018-03-28T17:15:59.610Z,17.60
2018-03-28T17:18:27.614Z,17.53
2018-03-28T17:20:56.469Z,19.37
2018-03-28T17:23:23.922Z,18.47
2018-03-28T17:25:51.898Z,18.77
2018-03-28T17:28:19.357Z,18.07
2018-03-28T17:30:47.443Z,17.93
2018-03-28T17:33:14.890Z,17.40
2018-03-28T17:35:42.357Z,17.83
2018-03-28T17:38:10.592Z,16.37
2018-03-28T17:40:38.066Z,16.90
2018-03-28T17:43:05.518Z,15.83
2018-03-28T17:45:32.977Z,16.47
2018-03-28T17:48:00.436Z,16.93
2018-03-28T17:50:28.405Z,15.53
2018-03-28T17:52:57.103Z,16.07
2018-03-28T17:55:24.552Z,14.57
2018-03-28T17:57:52.785Z,14.70
2018-03-28T18:00:20.241Z,15.60
2018-03-28T18:02:47.704Z,15.23
2018-03-28T18:05:15.169Z,13.67
2018-03-28T18:07:42.643Z,14.63
2018-03-28T18:10:10.097Z,14.20
2018-03-28T18:12:37.550Z,10.80
2018-03-28T18:15:07.749Z,10.23
2018-03-28T18:17:35.460Z,10.10
2018-03-28T18:20:03.350Z,8.53
2018-03-28T18:22:31.942Z,8.27
2018-03-28T18:25:01.622Z,6.77
2018-03-28T18:27:29.079Z,6.47
2018-03-28T18:29:56.938Z,5.80
2018-03-28T18:32:24.400Z,5.87
2018-03-28T18:34:52.425Z,5.90
2018-03-28T18:37:20.458Z,5.60
2018-03-28T18:39:48.710Z,5.87
2018-03-28T18:42:16.566Z,5.77
2018-03-28T18:44:44.014Z,5.43
2018-03-28T18:47:11.889Z,5.43
2018-03-28T18:52:21.308Z,5.53
2018-03-28T18:54:48.774Z,5.73
2018-03-28T18:57:16.669Z,5.30
2018-03-28T18:59:44.114Z,5.70
2018-03-28T19:02:11.569Z,6.07
2018-03-28T19:04:39.013Z,5.63
2018-03-28T19:07:06.477Z,6.50
2018-03-28T19:09:34.122Z,5.80
2018-03-28T19:12:02.115Z,6.00
2018-03-28T19:14:29.700Z,5.83
2018-03-28T19:16:57.697Z,6.00
2018-03-28T19:19:25.909Z,5.77
2018-03-28T19:21:55.565Z,6.10
2018-03-28T19:24:23.779Z,6.37
2018-03-28T19:26:51.231Z,6.93
2018-03-28T19:29:18.731Z,6.97
2018-03-28T19:31:46.184Z,7.10
2018-03-28T19:34:13.634Z,7.50
2018-03-28T19:36:41.078Z,7.67
2018-03-28T19:39:08.533Z,7.70
2018-03-28T19:41:36.003Z,8.43
2018-03-28T19:44:04.999Z,8.63
2018-03-28T19:46:32.469Z,8.13
2018-03-28T19:48:59.952Z,8.50
2018-03-28T19:51:28.162Z,8.20
2018-03-28T19:53:55.624Z,8.27
2018-03-28T19:56:23.638Z,7.87
2018-03-28T19:58:51.824Z,9.17
2018-03-28T20:01:20.482Z,8.87
2018-03-28T20:03:47.945Z,8.73
2018-03-28T20:06:15.398Z,8.90
2018-03-28T20:08:42.857Z,9.13
2018-03-28T20:11:11.261Z,7.70
2018-03-28T20:13:40.726Z,7.17
2018-03-28T20:16:08.205Z,7.33
2018-03-28T20:18:35.653Z,6.83
2018-03-28T20:21:03.464Z,5.73
2018-03-28T20:23:30.914Z,5.53
2018-03-28T20:25:58.350Z,5.30
2018-03-28T20:28:26.557Z,4.63
2018-03-28T20:30:54.019Z,5.17
2018-03-28T20:33:21.473Z,5.70
2018-03-28T20:35:48.925Z,5.87
2018-03-28T20:38:16.389Z,5.90
2018-03-28T20:40:44.332Z,5.20
2018-03-28T20:43:12.874Z,4.73
2018-03-28T20:45:40.637Z,5.13
2018-03-28T20:48:08.649Z,5.77
2018-03-28T20:50:36.102Z,2.70
2018-03-28T20:53:04.326Z,1.43
2018-03-28T20:55:31.785Z,1.53
2018-03-28T20:57:59.237Z,1.50
2018-03-28T21:00:27.661Z,1.43
2018-03-28T21:02:56.294Z,1.10
2018-03-28T21:05:23.758Z,1.00
2018-03-28T21:07:51.244Z,1.10
2018-03-28T21:10:19.082Z,1.00
2018-03-28T21:12:46.533Z,1.30
2018-03-28T21:15:14.216Z,1.30
2018-03-28T21:17:41.662Z,1.10
2018-03-28T21:20:09.114Z,1.20
2018-03-28T21:22:36.827Z,1.50
2018-03-28T21:25:05.031Z,1.40
2018-03-28T21:27:32.847Z,1.20
2018-03-28T21:30:00.294Z,1.70
2018-03-28T21:32:27.735Z,1.40
2018-03-28T21:34:55.705Z,1.40
2018-03-28T21:37:23.697Z,1.50
2018-03-28T21:39:51.918Z,1.90
2018-03-28T21:42:19.372Z,1.50
2018-03-28T21:44:46.825Z,1.90
2018-03-28T21:47:15.109Z,1.93
2018-03-28T21:49:43.043Z,2.03
2018-03-28T21:52:12.430Z,2.30
2018-03-28T21:54:39.865Z,2.47
2018-03-28T21:57:07.327Z,3.03
2018-03-28T21:59:34.765Z,2.60
2018-03-28T22:02:02.221Z,2.87
2018-03-28T22:04:29.663Z,2.83
2018-03-28T22:06:57.109Z,3.53
2018-03-28T22:09:24.571Z,3.43
2018-03-28T22:11:52.023Z,3.40
2018-03-28T22:14:19.494Z,3.60
2018-03-28T22:16:46.959Z,3.90
2018-03-28T22:19:14.389Z,3.73
2018-03-28T22:21:43.076Z,3.73
2018-03-28T22:24:10.514Z,3.47
2018-03-28T22:26:37.972Z,3.50
2018-03-28T22:29:06.601Z,3.30
2018-03-28T22:31:34.104Z,2.80
2018-03-28T22:34:04.782Z,3.30
2018-03-28T22:36:32.235Z,2.70
2018-03-28T22:38:59.682Z,3.10
2018-03-28T22:41:27.197Z,2.70
2018-03-28T22:43:57.239Z,2.87
2018-03-28T22:46:24.713Z,2.80
2018-03-28T22:48:52.581Z,2.40
2018-03-28T22:51:20.444Z,2.70
2018-03-28T22:53:48.433Z,2.53
2018-03-28T22:56:15.873Z,2.70
2018-03-28T22:58:43.340Z,2.70
2018-03-28T23:01:11.353Z,2.50
2018-03-28T23:03:38.794Z,2.73
2018-03-28T23:06:06.241Z,2.60
2018-03-28T23:08:33.687Z,2.47
2018-03-28T23:11:01.548Z,2.43
2018-03-28T23:13:31.469Z,2.90
2018-03-28T23:15:58.913Z,2.53
2018-03-28T23:18:26.353Z,2.60
2018-03-28T23:20:54.256Z,2.93
2018-03-28T23:23:21.698Z,2.70
2018-03-28T23:25:50.013Z,2.43
2018-03-28T23:28:17.453Z,2.47
2018-03-28T23:30:44.904Z,2.73
2018-03-28T23:33:12.352Z,2.73
2018-03-28T23:35:39.808Z,2.63
2018-03-28T23:38:07.253Z,3.50
2018-03-28T23:40:34.701Z,2.80
2018-03-28T23:43:02.172Z,3.37
2018-03-28T23:45:30.174Z,3.10
2018-03-28T23:47:58.177Z,2.50
2018-03-28T23:50:25.620Z,2.73
2018-03-28T23:52:53.839Z,2.57
2018-03-28T23:55:21.491Z,3.00
2018-03-28T23:57:49.070Z,2.93
